Lamar, Indiana
Current Conditions -  °F | °C
As of 12:35 PM on Saturday 20 Dec 2014 (Local Time) from KHNB Reporting Station
Overcast Overcast  
Wind Chill: 34°   Ceiling: 6500
Heat Index: 34°   Visibility: 10mi
Dew Point: 25°   Wind: 0mph
Humidity: 70%   Direction: NA
Pressure: 30.28"   Gusts: NA
Location:  38.07°N, 86.91°W
Report Text: KHNB 201835Z AUTO 00000KT 10SM FEW021 OVC065 01/M04 A3028 RMK AO1
Loading
Personal Weather Stations






























Interactive Weather Map New forecast layout! Learn more

10-Day Weather Forecast

Advertisements
Track Severe Weather on mobile